sensor_id;sensor_type;location;lat;lon;timestamp;P1;durP1;ratioP1;P2;durP2;ratioP2
83715;SDS011;73698;51.138;6.950;2023-11-18T00:02:08;50.92;;;16.40;;
83715;SDS011;73698;51.138;6.950;2023-11-18T00:04:34;53.08;;;16.63;;
83715;SDS011;73698;51.138;6.950;2023-11-18T00:06:59;51.80;;;15.55;;
83715;SDS011;73698;51.138;6.950;2023-11-18T00:09:25;41.80;;;14.95;;
83715;SDS011;73698;51.138;6.950;2023-11-18T00:11:50;55.75;;;15.68;;
83715;SDS011;73698;51.138;6.950;2023-11-18T00:14:16;46.60;;;14.98;;
83715;SDS011;73698;51.138;6.950;2023-11-18T00:16:43;42.15;;;15.13;;
83715;SDS011;73698;51.138;6.950;2023-11-18T00:19:08;45.13;;;15.70;;
83715;SDS011;73698;51.138;6.950;2023-11-18T00:21:34;38.22;;;14.35;;
83715;SDS011;73698;51.138;6.950;2023-11-18T00:24:01;39.20;;;13.55;;
83715;SDS011;73698;51.138;6.950;2023-11-18T00:26:26;42.13;;;14.80;;
83715;SDS011;73698;51.138;6.950;2023-11-18T00:28:52;43.67;;;13.73;;
83715;SDS011;73698;51.138;6.950;2023-11-18T00:31:17;45.25;;;15.00;;
83715;SDS011;73698;51.138;6.950;2023-11-18T00:33:43;41.40;;;14.82;;
83715;SDS011;73698;51.138;6.950;2023-11-18T00:36:08;39.25;;;14.02;;
83715;SDS011;73698;51.138;6.950;2023-11-18T00:38:34;40.33;;;13.02;;
83715;SDS011;73698;51.138;6.950;2023-11-18T00:40:59;40.55;;;13.25;;
83715;SDS011;73698;51.138;6.950;2023-11-18T00:43:25;38.13;;;13.30;;
83715;SDS011;73698;51.138;6.950;2023-11-18T00:45:50;42.70;;;13.52;;
83715;SDS011;73698;51.138;6.950;2023-11-18T00:48:16;37.97;;;12.82;;
83715;SDS011;73698;51.138;6.950;2023-11-18T00:50:42;39.33;;;14.88;;
83715;SDS011;73698;51.138;6.950;2023-11-18T00:53:07;35.45;;;12.63;;
83715;SDS011;73698;51.138;6.950;2023-11-18T00:55:33;31.88;;;12.30;;
83715;SDS011;73698;51.138;6.950;2023-11-18T00:57:58;33.35;;;12.15;;
83715;SDS011;73698;51.138;6.950;2023-11-18T01:00:24;34.17;;;12.60;;
83715;SDS011;73698;51.138;6.950;2023-11-18T01:02:51;36.42;;;13.05;;
83715;SDS011;73698;51.138;6.950;2023-11-18T01:05:18;36.20;;;13.18;;
83715;SDS011;73698;51.138;6.950;2023-11-18T01:07:44;35.00;;;13.18;;
83715;SDS011;73698;51.138;6.950;2023-11-18T01:10:10;40.13;;;12.80;;
83715;SDS011;73698;51.138;6.950;2023-11-18T01:12:36;39.97;;;12.75;;
83715;SDS011;73698;51.138;6.950;2023-11-18T01:15:01;36.88;;;11.35;;
83715;SDS011;73698;51.138;6.950;2023-11-18T01:17:28;35.88;;;12.75;;
83715;SDS011;73698;51.138;6.950;2023-11-18T01:19:54;34.72;;;11.50;;
83715;SDS011;73698;51.138;6.950;2023-11-18T01:22:20;33.33;;;11.77;;
83715;SDS011;73698;51.138;6.950;2023-11-18T01:24:46;36.40;;;12.38;;
83715;SDS011;73698;51.138;6.950;2023-11-18T01:27:11;40.38;;;12.70;;
83715;SDS011;73698;51.138;6.950;2023-11-18T01:29:37;35.95;;;12.82;;
83715;SDS011;73698;51.138;6.950;2023-11-18T01:32:04;33.50;;;12.15;;
83715;SDS011;73698;51.138;6.950;2023-11-18T01:34:50;28.30;;;10.05;;
83715;SDS011;73698;51.138;6.950;2023-11-18T01:37:16;33.47;;;13.05;;
83715;SDS011;73698;51.138;6.950;2023-11-18T01:39:41;39.38;;;13.10;;
83715;SDS011;73698;51.138;6.950;2023-11-18T01:42:07;36.83;;;12.35;;
83715;SDS011;73698;51.138;6.950;2023-11-18T01:44:32;35.47;;;11.48;;
83715;SDS011;73698;51.138;6.950;2023-11-18T01:47:01;31.63;;;12.18;;
83715;SDS011;73698;51.138;6.950;2023-11-18T01:49:31;32.88;;;12.38;;
83715;SDS011;73698;51.138;6.950;2023-11-18T01:51:57;32.20;;;11.48;;
83715;SDS011;73698;51.138;6.950;2023-11-18T01:54:26;33.92;;;12.13;;
83715;SDS011;73698;51.138;6.950;2023-11-18T01:56:52;37.22;;;13.40;;
83715;SDS011;73698;51.138;6.950;2023-11-18T01:59:18;35.33;;;12.80;;
83715;SDS011;73698;51.138;6.950;2023-11-18T02:01:47;34.17;;;13.07;;
83715;SDS011;73698;51.138;6.950;2023-11-18T02:04:15;34.45;;;12.70;;
83715;SDS011;73698;51.138;6.950;2023-11-18T02:06:42;33.60;;;12.27;;
83715;SDS011;73698;51.138;6.950;2023-11-18T02:09:10;33.75;;;12.00;;
83715;SDS011;73698;51.138;6.950;2023-11-18T02:11:36;29.45;;;11.20;;
83715;SDS011;73698;51.138;6.950;2023-11-18T02:14:07;25.20;;;9.60;;
83715;SDS011;73698;51.138;6.950;2023-11-18T02:16:36;29.02;;;10.85;;
83715;SDS011;73698;51.138;6.950;2023-11-18T02:19:06;28.55;;;10.70;;
83715;SDS011;73698;51.138;6.950;2023-11-18T02:21:41;29.50;;;11.35;;
83715;SDS011;73698;51.138;6.950;2023-11-18T02:24:09;30.55;;;12.07;;
83715;SDS011;73698;51.138;6.950;2023-11-18T02:26:34;26.20;;;11.35;;
83715;SDS011;73698;51.138;6.950;2023-11-18T02:29:00;24.63;;;10.45;;
83715;SDS011;73698;51.138;6.950;2023-11-18T02:31:27;26.35;;;10.43;;
83715;SDS011;73698;51.138;6.950;2023-11-18T02:34:02;30.13;;;11.38;;
83715;SDS011;73698;51.138;6.950;2023-11-18T02:36:42;26.63;;;10.23;;
83715;SDS011;73698;51.138;6.950;2023-11-18T02:39:12;27.20;;;10.13;;
83715;SDS011;73698;51.138;6.950;2023-11-18T02:41:46;24.40;;;10.75;;
83715;SDS011;73698;51.138;6.950;2023-11-18T02:44:16;27.50;;;10.37;;
83715;SDS011;73698;51.138;6.950;2023-11-18T02:46:45;27.48;;;10.95;;
83715;SDS011;73698;51.138;6.950;2023-11-18T02:49:10;31.73;;;11.65;;
83715;SDS011;73698;51.138;6.950;2023-11-18T02:51:37;29.60;;;11.45;;
83715;SDS011;73698;51.138;6.950;2023-11-18T02:54:07;25.70;;;10.38;;
83715;SDS011;73698;51.138;6.950;2023-11-18T02:56:35;29.77;;;10.45;;
83715;SDS011;73698;51.138;6.950;2023-11-18T02:59:01;26.95;;;10.55;;
83715;SDS011;73698;51.138;6.950;2023-11-18T03:01:30;29.90;;;10.80;;
83715;SDS011;73698;51.138;6.950;2023-11-18T03:03:56;27.83;;;10.57;;
83715;SDS011;73698;51.138;6.950;2023-11-18T03:06:21;22.63;;;9.98;;
83715;SDS011;73698;51.138;6.950;2023-11-18T03:08:46;25.83;;;10.23;;
83715;SDS011;73698;51.138;6.950;2023-11-18T03:11:12;26.50;;;10.27;;
83715;SDS011;73698;51.138;6.950;2023-11-18T03:13:37;24.48;;;9.50;;
83715;SDS011;73698;51.138;6.950;2023-11-18T03:16:06;28.75;;;11.13;;
83715;SDS011;73698;51.138;6.950;2023-11-18T03:18:36;25.95;;;9.30;;
83715;SDS011;73698;51.138;6.950;2023-11-18T03:21:03;25.77;;;10.10;;
83715;SDS011;73698;51.138;6.950;2023-11-18T03:23:31;18.50;;;9.50;;
83715;SDS011;73698;51.138;6.950;2023-11-18T03:25:57;26.92;;;10.00;;
83715;SDS011;73698;51.138;6.950;2023-11-18T03:28:23;24.65;;;10.25;;
83715;SDS011;73698;51.138;6.950;2023-11-18T03:30:48;25.83;;;9.73;;
83715;SDS011;73698;51.138;6.950;2023-11-18T03:33:14;26.88;;;10.00;;
83715;SDS011;73698;51.138;6.950;2023-11-18T03:35:39;25.00;;;10.32;;
83715;SDS011;73698;51.138;6.950;2023-11-18T03:38:05;27.35;;;10.00;;
83715;SDS011;73698;51.138;6.950;2023-11-18T03:40:30;28.10;;;10.85;;
83715;SDS011;73698;51.138;6.950;2023-11-18T03:42:56;25.55;;;9.55;;
83715;SDS011;73698;51.138;6.950;2023-11-18T03:45:23;24.27;;;9.13;;
83715;SDS011;73698;51.138;6.950;2023-11-18T03:47:49;21.58;;;9.25;;
83715;SDS011;73698;51.138;6.950;2023-11-18T03:50:15;26.00;;;9.70;;
83715;SDS011;73698;51.138;6.950;2023-11-18T03:52:41;20.10;;;8.25;;
83715;SDS011;73698;51.138;6.950;2023-11-18T03:55:07;24.67;;;9.93;;
83715;SDS011;73698;51.138;6.950;2023-11-18T03:57:33;27.20;;;11.52;;
83715;SDS011;73698;51.138;6.950;2023-11-18T03:59:59;25.17;;;10.82;;
83715;SDS011;73698;51.138;6.950;2023-11-18T04:02:25;21.58;;;9.82;;
83715;SDS011;73698;51.138;6.950;2023-11-18T04:04:51;29.10;;;9.73;;
83715;SDS011;73698;51.138;6.950;2023-11-18T04:07:17;27.80;;;10.25;;
83715;SDS011;73698;51.138;6.950;2023-11-18T04:09:42;18.52;;;8.32;;
83715;SDS011;73698;51.138;6.950;2023-11-18T04:12:08;24.15;;;9.43;;
83715;SDS011;73698;51.138;6.950;2023-11-18T04:14:35;20.33;;;8.90;;
83715;SDS011;73698;51.138;6.950;2023-11-18T04:17:01;22.65;;;9.48;;
83715;SDS011;73698;51.138;6.950;2023-11-18T04:19:27;27.77;;;10.75;;
83715;SDS011;73698;51.138;6.950;2023-11-18T04:21:52;28.35;;;10.88;;
83715;SDS011;73698;51.138;6.950;2023-11-18T04:24:18;26.10;;;10.40;;
83715;SDS011;73698;51.138;6.950;2023-11-18T04:26:43;28.33;;;10.35;;
83715;SDS011;73698;51.138;6.950;2023-11-18T04:29:09;27.27;;;9.77;;
83715;SDS011;73698;51.138;6.950;2023-11-18T04:31:34;26.27;;;9.52;;
83715;SDS011;73698;51.138;6.950;2023-11-18T04:34:01;26.77;;;9.43;;
83715;SDS011;73698;51.138;6.950;2023-11-18T04:36:26;20.70;;;8.57;;
83715;SDS011;73698;51.138;6.950;2023-11-18T04:38:52;29.02;;;11.10;;
83715;SDS011;73698;51.138;6.950;2023-11-18T04:41:18;25.55;;;10.50;;
83715;SDS011;73698;51.138;6.950;2023-11-18T04:43:43;33.15;;;11.77;;
83715;SDS011;73698;51.138;6.950;2023-11-18T04:46:08;23.85;;;9.73;;
83715;SDS011;73698;51.138;6.950;2023-11-18T04:48:35;25.33;;;9.73;;
83715;SDS011;73698;51.138;6.950;2023-11-18T04:51:01;21.33;;;9.88;;
83715;SDS011;73698;51.138;6.950;2023-11-18T04:53:26;25.88;;;9.88;;
83715;SDS011;73698;51.138;6.950;2023-11-18T04:55:52;28.58;;;11.25;;
83715;SDS011;73698;51.138;6.950;2023-11-18T04:58:18;28.20;;;11.25;;
83715;SDS011;73698;51.138;6.950;2023-11-18T05:00:44;31.33;;;11.57;;
83715;SDS011;73698;51.138;6.950;2023-11-18T05:03:09;24.50;;;10.93;;
83715;SDS011;73698;51.138;6.950;2023-11-18T05:05:35;25.30;;;9.95;;
83715;SDS011;73698;51.138;6.950;2023-11-18T05:08:04;27.77;;;9.80;;
83715;SDS011;73698;51.138;6.950;2023-11-18T05:10:34;27.00;;;10.55;;
83715;SDS011;73698;51.138;6.950;2023-11-18T05:13:00;26.45;;;10.23;;
83715;SDS011;73698;51.138;6.950;2023-11-18T05:15:26;27.20;;;10.15;;
83715;SDS011;73698;51.138;6.950;2023-11-18T05:17:51;30.27;;;10.52;;
83715;SDS011;73698;51.138;6.950;2023-11-18T05:20:18;27.48;;;10.82;;
83715;SDS011;73698;51.138;6.950;2023-11-18T05:22:44;28.95;;;11.27;;
83715;SDS011;73698;51.138;6.950;2023-11-18T05:25:10;32.35;;;11.95;;
83715;SDS011;73698;51.138;6.950;2023-11-18T05:27:36;32.65;;;11.60;;
83715;SDS011;73698;51.138;6.950;2023-11-18T05:30:02;25.40;;;11.35;;
83715;SDS011;73698;51.138;6.950;2023-11-18T05:32:30;33.70;;;12.70;;
83715;SDS011;73698;51.138;6.950;2023-11-18T05:34:56;27.85;;;10.95;;
83715;SDS011;73698;51.138;6.950;2023-11-18T05:37:22;30.90;;;10.80;;
83715;SDS011;73698;51.138;6.950;2023-11-18T05:39:48;29.23;;;12.32;;
83715;SDS011;73698;51.138;6.950;2023-11-18T05:42:18;29.77;;;11.27;;
83715;SDS011;73698;51.138;6.950;2023-11-18T05:44:44;26.38;;;11.88;;
83715;SDS011;73698;51.138;6.950;2023-11-18T05:47:10;26.30;;;11.13;;
83715;SDS011;73698;51.138;6.950;2023-11-18T05:49:37;30.80;;;11.02;;
83715;SDS011;73698;51.138;6.950;2023-11-18T05:52:03;29.65;;;10.63;;
83715;SDS011;73698;51.138;6.950;2023-11-18T05:54:29;27.27;;;11.55;;
83715;SDS011;73698;51.138;6.950;2023-11-18T05:56:55;27.95;;;11.23;;
83715;SDS011;73698;51.138;6.950;2023-11-18T05:59:21;27.10;;;12.07;;
83715;SDS011;73698;51.138;6.950;2023-11-18T06:01:48;26.98;;;10.35;;
83715;SDS011;73698;51.138;6.950;2023-11-18T06:04:14;31.58;;;11.85;;
83715;SDS011;73698;51.138;6.950;2023-11-18T06:06:40;29.33;;;11.45;;
83715;SDS011;73698;51.138;6.950;2023-11-18T06:09:06;30.10;;;10.63;;
83715;SDS011;73698;51.138;6.950;2023-11-18T06:11:34;31.48;;;11.52;;
83715;SDS011;73698;51.138;6.950;2023-11-18T06:14:00;25.52;;;10.50;;
83715;SDS011;73698;51.138;6.950;2023-11-18T06:16:26;30.52;;;12.52;;
83715;SDS011;73698;51.138;6.950;2023-11-18T06:18:53;29.15;;;10.68;;
83715;SDS011;73698;51.138;6.950;2023-11-18T06:21:23;27.63;;;10.63;;
83715;SDS011;73698;51.138;6.950;2023-11-18T06:23:50;29.08;;;11.63;;
83715;SDS011;73698;51.138;6.950;2023-11-18T06:26:16;34.38;;;12.85;;
83715;SDS011;73698;51.138;6.950;2023-11-18T06:28:43;27.02;;;10.07;;
83715;SDS011;73698;51.138;6.950;2023-11-18T06:31:10;26.30;;;10.57;;
83715;SDS011;73698;51.138;6.950;2023-11-18T06:33:37;25.05;;;10.80;;
83715;SDS011;73698;51.138;6.950;2023-11-18T06:36:05;27.02;;;10.50;;
83715;SDS011;73698;51.138;6.950;2023-11-18T06:38:31;26.95;;;10.43;;
83715;SDS011;73698;51.138;6.950;2023-11-18T06:40:56;27.77;;;10.82;;
83715;SDS011;73698;51.138;6.950;2023-11-18T06:43:23;24.80;;;10.90;;
83715;SDS011;73698;51.138;6.950;2023-11-18T06:45:49;32.13;;;11.15;;
83715;SDS011;73698;51.138;6.950;2023-11-18T06:48:15;25.15;;;10.43;;
83715;SDS011;73698;51.138;6.950;2023-11-18T06:50:45;23.48;;;10.05;;
83715;SDS011;73698;51.138;6.950;2023-11-18T06:53:11;27.45;;;10.05;;
83715;SDS011;73698;51.138;6.950;2023-11-18T06:55:37;24.88;;;9.20;;
83715;SDS011;73698;51.138;6.950;2023-11-18T06:58:02;24.27;;;10.18;;
83715;SDS011;73698;51.138;6.950;2023-11-18T07:00:28;25.45;;;10.70;;
83715;SDS011;73698;51.138;6.950;2023-11-18T07:02:54;27.63;;;10.32;;
83715;SDS011;73698;51.138;6.950;2023-11-18T07:05:19;28.20;;;10.75;;
83715;SDS011;73698;51.138;6.950;2023-11-18T07:07:49;25.80;;;9.77;;
83715;SDS011;73698;51.138;6.950;2023-11-18T07:10:15;25.77;;;10.35;;
83715;SDS011;73698;51.138;6.950;2023-11-18T07:12:45;24.58;;;9.95;;
83715;SDS011;73698;51.138;6.950;2023-11-18T07:15:10;24.90;;;10.57;;
83715;SDS011;73698;51.138;6.950;2023-11-18T07:17:36;24.70;;;9.77;;
83715;SDS011;73698;51.138;6.950;2023-11-18T07:20:01;24.35;;;10.35;;
83715;SDS011;73698;51.138;6.950;2023-11-18T07:22:27;23.55;;;9.25;;
83715;SDS011;73698;51.138;6.950;2023-11-18T07:24:54;22.30;;;10.23;;
83715;SDS011;73698;51.138;6.950;2023-11-18T07:27:19;20.98;;;8.57;;
83715;SDS011;73698;51.138;6.950;2023-11-18T07:29:45;25.35;;;9.70;;
83715;SDS011;73698;51.138;6.950;2023-11-18T07:32:10;23.88;;;10.40;;
83715;SDS011;73698;51.138;6.950;2023-11-18T07:34:36;26.27;;;10.73;;
83715;SDS011;73698;51.138;6.950;2023-11-18T07:37:03;20.80;;;8.63;;
83715;SDS011;73698;51.138;6.950;2023-11-18T07:39:28;24.30;;;10.18;;
83715;SDS011;73698;51.138;6.950;2023-11-18T07:42:09;22.00;;;8.63;;
83715;SDS011;73698;51.138;6.950;2023-11-18T07:44:38;21.27;;;10.18;;
83715;SDS011;73698;51.138;6.950;2023-11-18T07:47:04;20.05;;;9.35;;
83715;SDS011;73698;51.138;6.950;2023-11-18T07:49:35;24.33;;;9.77;;
83715;SDS011;73698;51.138;6.950;2023-11-18T07:52:03;17.63;;;8.65;;
83715;SDS011;73698;51.138;6.950;2023-11-18T07:54:29;17.75;;;8.93;;
83715;SDS011;73698;51.138;6.950;2023-11-18T07:56:54;21.10;;;8.57;;
83715;SDS011;73698;51.138;6.950;2023-11-18T07:59:20;20.50;;;7.78;;
83715;SDS011;73698;51.138;6.950;2023-11-18T08:01:47;20.67;;;8.48;;
83715;SDS011;73698;51.138;6.950;2023-11-18T08:04:12;23.52;;;7.70;;
83715;SDS011;73698;51.138;6.950;2023-11-18T08:06:39;23.35;;;8.35;;
83715;SDS011;73698;51.138;6.950;2023-11-18T08:09:05;16.45;;;7.15;;
83715;SDS011;73698;51.138;6.950;2023-11-18T08:11:37;21.00;;;8.77;;
83715;SDS011;73698;51.138;6.950;2023-11-18T08:14:06;16.77;;;7.78;;
83715;SDS011;73698;51.138;6.950;2023-11-18T08:16:33;17.13;;;7.30;;
83715;SDS011;73698;51.138;6.950;2023-11-18T08:18:58;18.40;;;7.38;;
83715;SDS011;73698;51.138;6.950;2023-11-18T08:21:24;20.17;;;7.47;;
83715;SDS011;73698;51.138;6.950;2023-11-18T08:23:49;12.85;;;6.07;;
83715;SDS011;73698;51.138;6.950;2023-11-18T08:26:15;13.50;;;6.82;;
83715;SDS011;73698;51.138;6.950;2023-11-18T08:28:40;16.08;;;8.00;;
83715;SDS011;73698;51.138;6.950;2023-11-18T08:31:06;15.45;;;6.78;;
83715;SDS011;73698;51.138;6.950;2023-11-18T08:33:32;14.45;;;6.20;;
83715;SDS011;73698;51.138;6.950;2023-11-18T08:35:59;11.90;;;6.70;;
83715;SDS011;73698;51.138;6.950;2023-11-18T08:38:26;13.85;;;6.55;;
83715;SDS011;73698;51.138;6.950;2023-11-18T08:40:53;13.80;;;7.05;;
83715;SDS011;73698;51.138;6.950;2023-11-18T08:43:18;12.98;;;7.10;;
83715;SDS011;73698;51.138;6.950;2023-11-18T08:45:46;11.15;;;6.07;;
83715;SDS011;73698;51.138;6.950;2023-11-18T08:48:12;14.18;;;6.03;;
83715;SDS011;73698;51.138;6.950;2023-11-18T08:50:38;11.38;;;6.53;;
83715;SDS011;73698;51.138;6.950;2023-11-18T08:53:08;11.02;;;5.60;;
83715;SDS011;73698;51.138;6.950;2023-11-18T08:55:34;12.35;;;6.07;;
83715;SDS011;73698;51.138;6.950;2023-11-18T08:58:10;12.23;;;5.95;;
83715;SDS011;73698;51.138;6.950;2023-11-18T09:00:54;10.88;;;5.80;;
83715;SDS011;73698;51.138;6.950;2023-11-18T09:03:26;15.18;;;5.90;;
83715;SDS011;73698;51.138;6.950;2023-11-18T09:06:02;13.43;;;6.03;;
83715;SDS011;73698;51.138;6.950;2023-11-18T09:08:36;13.25;;;6.90;;
83715;SDS011;73698;51.138;6.950;2023-11-18T09:11:11;13.77;;;6.05;;
83715;SDS011;73698;51.138;6.950;2023-11-18T09:13:46;13.10;;;5.47;;
83715;SDS011;73698;51.138;6.950;2023-11-18T09:16:19;11.52;;;5.60;;
83715;SDS011;73698;51.138;6.950;2023-11-18T09:18:52;16.92;;;6.03;;
83715;SDS011;73698;51.138;6.950;2023-11-18T09:21:18;16.38;;;6.35;;
83715;SDS011;73698;51.138;6.950;2023-11-18T09:23:50;13.55;;;6.13;;
83715;SDS011;73698;51.138;6.950;2023-11-18T09:26:16;13.70;;;6.13;;
83715;SDS011;73698;51.138;6.950;2023-11-18T09:28:42;10.13;;;5.20;;
83715;SDS011;73698;51.138;6.950;2023-11-18T09:31:09;9.15;;;4.95;;
83715;SDS011;73698;51.138;6.950;2023-11-18T09:33:38;13.02;;;5.60;;
83715;SDS011;73698;51.138;6.950;2023-11-18T09:36:10;12.55;;;6.03;;
83715;SDS011;73698;51.138;6.950;2023-11-18T09:38:37;15.10;;;6.82;;
83715;SDS011;73698;51.138;6.950;2023-11-18T09:41:07;13.30;;;6.35;;
83715;SDS011;73698;51.138;6.950;2023-11-18T09:43:38;13.73;;;6.22;;
83715;SDS011;73698;51.138;6.950;2023-11-18T09:46:25;11.10;;;5.50;;
83715;SDS011;73698;51.138;6.950;2023-11-18T09:48:53;15.40;;;6.63;;
83715;SDS011;73698;51.138;6.950;2023-11-18T09:51:28;14.93;;;6.40;;
83715;SDS011;73698;51.138;6.950;2023-11-18T09:53:59;12.20;;;5.93;;
83715;SDS011;73698;51.138;6.950;2023-11-18T09:56:39;12.20;;;5.32;;
83715;SDS011;73698;51.138;6.950;2023-11-18T10:01:53;11.05;;;5.68;;
83715;SDS011;73698;51.138;6.950;2023-11-18T10:04:22;11.05;;;5.38;;
83715;SDS011;73698;51.138;6.950;2023-11-18T10:06:52;14.43;;;6.03;;
83715;SDS011;73698;51.138;6.950;2023-11-18T10:09:18;11.55;;;5.25;;
83715;SDS011;73698;51.138;6.950;2023-11-18T10:11:53;10.13;;;5.63;;
83715;SDS011;73698;51.138;6.950;2023-11-18T10:14:25;10.55;;;5.65;;
83715;SDS011;73698;51.138;6.950;2023-11-18T10:16:54;11.45;;;5.28;;
83715;SDS011;73698;51.138;6.950;2023-11-18T10:19:20;11.30;;;5.35;;
83715;SDS011;73698;51.138;6.950;2023-11-18T10:21:46;12.10;;;6.03;;
83715;SDS011;73698;51.138;6.950;2023-11-18T10:24:14;13.57;;;6.32;;
83715;SDS011;73698;51.138;6.950;2023-11-18T10:26:44;11.80;;;5.03;;
83715;SDS011;73698;51.138;6.950;2023-11-18T10:29:11;12.25;;;5.30;;
83715;SDS011;73698;51.138;6.950;2023-11-18T10:31:39;11.55;;;6.07;;
83715;SDS011;73698;51.138;6.950;2023-11-18T10:34:13;13.88;;;6.18;;
83715;SDS011;73698;51.138;6.950;2023-11-18T10:36:58;11.00;;;5.47;;
83715;SDS011;73698;51.138;6.950;2023-11-18T10:39:31;12.93;;;5.85;;
83715;SDS011;73698;51.138;6.950;2023-11-18T10:42:00;8.20;;;4.88;;
83715;SDS011;73698;51.138;6.950;2023-11-18T10:44:27;10.65;;;5.13;;
83715;SDS011;73698;51.138;6.950;2023-11-18T10:46:54;14.07;;;5.53;;
83715;SDS011;73698;51.138;6.950;2023-11-18T10:49:23;10.02;;;5.57;;
83715;SDS011;73698;51.138;6.950;2023-11-18T10:51:52;13.80;;;5.10;;
83715;SDS011;73698;51.138;6.950;2023-11-18T10:54:19;9.07;;;4.28;;
83715;SDS011;73698;51.138;6.950;2023-11-18T10:56:47;9.80;;;4.95;;
83715;SDS011;73698;51.138;6.950;2023-11-18T10:59:13;8.85;;;5.05;;
83715;SDS011;73698;51.138;6.950;2023-11-18T11:01:43;9.93;;;4.50;;
83715;SDS011;73698;51.138;6.950;2023-11-18T11:04:10;8.52;;;4.70;;
83715;SDS011;73698;51.138;6.950;2023-11-18T11:06:46;9.40;;;4.72;;
83715;SDS011;73698;51.138;6.950;2023-11-18T11:09:17;8.68;;;4.20;;
83715;SDS011;73698;51.138;6.950;2023-11-18T11:11:53;10.32;;;5.28;;
83715;SDS011;73698;51.138;6.950;2023-11-18T11:14:24;11.05;;;5.70;;
83715;SDS011;73698;51.138;6.950;2023-11-18T11:17:00;9.95;;;4.40;;
83715;SDS011;73698;51.138;6.950;2023-11-18T11:33:42;9.60;;;4.30;;
83715;SDS011;73698;51.138;6.950;2023-11-18T11:36:58;7.13;;;4.47;;
83715;SDS011;73698;51.138;6.950;2023-11-18T11:42:51;9.27;;;4.38;;
83715;SDS011;73698;51.138;6.950;2023-11-18T11:58:51;8.55;;;4.38;;
83715;SDS011;73698;51.138;6.950;2023-11-18T12:08:56;9.48;;;4.45;;
83715;SDS011;73698;51.138;6.950;2023-11-18T12:11:52;8.65;;;5.68;;
83715;SDS011;73698;51.138;6.950;2023-11-18T12:57:02;8.52;;;5.25;;
83715;SDS011;73698;51.138;6.950;2023-11-18T13:14:17;8.57;;;4.55;;
83715;SDS011;73698;51.138;6.950;2023-11-18T13:24:38;12.57;;;7.35;;
83715;SDS011;73698;51.138;6.950;2023-11-18T13:27:24;9.45;;;5.20;;
83715;SDS011;73698;51.138;6.950;2023-11-18T13:30:18;10.75;;;6.22;;
83715;SDS011;73698;51.138;6.950;2023-11-18T13:37:05;21.08;;;8.43;;
83715;SDS011;73698;51.138;6.950;2023-11-18T13:43:24;9.65;;;4.78;;
83715;SDS011;73698;51.138;6.950;2023-11-18T13:47:05;15.35;;;5.35;;
83715;SDS011;73698;51.138;6.950;2023-11-18T14:06:44;6.65;;;3.65;;
83715;SDS011;73698;51.138;6.950;2023-11-18T14:27:56;9.90;;;4.43;;
83715;SDS011;73698;51.138;6.950;2023-11-18T15:01:38;8.88;;;4.13;;
83715;SDS011;73698;51.138;6.950;2023-11-18T15:04:54;8.75;;;3.90;;
83715;SDS011;73698;51.138;6.950;2023-11-18T15:07:19;11.95;;;4.95;;
83715;SDS011;73698;51.138;6.950;2023-11-18T15:09:46;8.75;;;4.13;;
83715;SDS011;73698;51.138;6.950;2023-11-18T15:12:11;7.50;;;4.25;;
83715;SDS011;73698;51.138;6.950;2023-11-18T15:14:38;8.27;;;3.53;;
83715;SDS011;73698;51.138;6.950;2023-11-18T15:17:03;9.48;;;4.30;;
83715;SDS011;73698;51.138;6.950;2023-11-18T15:19:29;10.20;;;4.47;;
83715;SDS011;73698;51.138;6.950;2023-11-18T15:21:55;8.90;;;4.40;;
83715;SDS011;73698;51.138;6.950;2023-11-18T15:24:20;7.03;;;4.13;;
83715;SDS011;73698;51.138;6.950;2023-11-18T15:26:47;11.93;;;4.32;;
83715;SDS011;73698;51.138;6.950;2023-11-18T15:29:13;8.18;;;4.60;;
83715;SDS011;73698;51.138;6.950;2023-11-18T15:31:42;8.10;;;3.47;;
83715;SDS011;73698;51.138;6.950;2023-11-18T15:34:08;8.20;;;4.00;;
83715;SDS011;73698;51.138;6.950;2023-11-18T15:36:33;10.60;;;4.03;;
83715;SDS011;73698;51.138;6.950;2023-11-18T15:38:59;9.02;;;3.50;;
83715;SDS011;73698;51.138;6.950;2023-11-18T15:41:28;9.25;;;4.07;;
83715;SDS011;73698;51.138;6.950;2023-11-18T15:43:55;7.00;;;3.55;;
83715;SDS011;73698;51.138;6.950;2023-11-18T15:46:20;7.15;;;3.92;;
83715;SDS011;73698;51.138;6.950;2023-11-18T15:48:46;7.88;;;4.25;;
83715;SDS011;73698;51.138;6.950;2023-11-18T15:51:12;6.03;;;3.60;;
83715;SDS011;73698;51.138;6.950;2023-11-18T15:53:41;13.90;;;5.07;;
83715;SDS011;73698;51.138;6.950;2023-11-18T15:56:08;10.07;;;4.15;;
83715;SDS011;73698;51.138;6.950;2023-11-18T15:58:36;7.78;;;4.35;;
83715;SDS011;73698;51.138;6.950;2023-11-18T16:01:02;6.07;;;3.55;;
83715;SDS011;73698;51.138;6.950;2023-11-18T16:03:28;7.53;;;3.63;;
83715;SDS011;73698;51.138;6.950;2023-11-18T16:05:54;8.18;;;3.30;;
83715;SDS011;73698;51.138;6.950;2023-11-18T16:08:20;7.38;;;3.63;;
83715;SDS011;73698;51.138;6.950;2023-11-18T16:10:45;6.57;;;3.60;;
83715;SDS011;73698;51.138;6.950;2023-11-18T16:13:11;7.35;;;3.42;;
83715;SDS011;73698;51.138;6.950;2023-11-18T16:15:37;5.22;;;3.05;;
83715;SDS011;73698;51.138;6.950;2023-11-18T16:18:02;6.78;;;3.40;;
83715;SDS011;73698;51.138;6.950;2023-11-18T16:20:29;6.25;;;3.90;;
83715;SDS011;73698;51.138;6.950;2023-11-18T16:22:59;7.35;;;3.72;;
83715;SDS011;73698;51.138;6.950;2023-11-18T16:25:28;7.75;;;3.88;;
83715;SDS011;73698;51.138;6.950;2023-11-18T16:27:55;10.32;;;5.15;;
83715;SDS011;73698;51.138;6.950;2023-11-18T16:30:23;12.35;;;4.07;;
83715;SDS011;73698;51.138;6.950;2023-11-18T16:32:53;8.35;;;4.28;;
83715;SDS011;73698;51.138;6.950;2023-11-18T16:35:19;8.20;;;3.72;;
83715;SDS011;73698;51.138;6.950;2023-11-18T16:37:45;7.10;;;3.67;;
83715;SDS011;73698;51.138;6.950;2023-11-18T16:40:12;7.40;;;3.80;;
83715;SDS011;73698;51.138;6.950;2023-11-18T16:42:44;7.40;;;4.13;;
83715;SDS011;73698;51.138;6.950;2023-11-18T16:45:17;6.85;;;3.63;;
83715;SDS011;73698;51.138;6.950;2023-11-18T16:47:45;8.35;;;3.97;;
83715;SDS011;73698;51.138;6.950;2023-11-18T16:50:15;6.38;;;4.03;;
83715;SDS011;73698;51.138;6.950;2023-11-18T16:52:42;8.07;;;3.63;;
83715;SDS011;73698;51.138;6.950;2023-11-18T16:55:08;10.48;;;3.72;;
83715;SDS011;73698;51.138;6.950;2023-11-18T16:57:35;8.07;;;3.72;;
83715;SDS011;73698;51.138;6.950;2023-11-18T17:00:10;5.82;;;3.88;;
83715;SDS011;73698;51.138;6.950;2023-11-18T17:02:51;4.65;;;3.15;;
83715;SDS011;73698;51.138;6.950;2023-11-18T17:05:23;5.75;;;3.72;;
83715;SDS011;73698;51.138;6.950;2023-11-18T17:07:48;8.20;;;3.38;;
83715;SDS011;73698;51.138;6.950;2023-11-18T17:10:14;3.83;;;2.72;;
83715;SDS011;73698;51.138;6.950;2023-11-18T17:12:41;4.63;;;3.42;;
83715;SDS011;73698;51.138;6.950;2023-11-18T17:15:08;6.40;;;3.45;;
83715;SDS011;73698;51.138;6.950;2023-11-18T17:17:40;6.97;;;3.80;;
83715;SDS011;73698;51.138;6.950;2023-11-18T17:20:10;7.72;;;3.85;;
83715;SDS011;73698;51.138;6.950;2023-11-18T17:22:38;5.78;;;3.67;;
83715;SDS011;73698;51.138;6.950;2023-11-18T17:25:08;5.88;;;3.60;;
83715;SDS011;73698;51.138;6.950;2023-11-18T17:27:35;5.22;;;3.50;;
83715;SDS011;73698;51.138;6.950;2023-11-18T17:30:04;4.40;;;3.13;;
83715;SDS011;73698;51.138;6.950;2023-11-18T17:32:33;5.00;;;3.00;;
83715;SDS011;73698;51.138;6.950;2023-11-18T17:34:58;6.80;;;3.38;;
83715;SDS011;73698;51.138;6.950;2023-11-18T17:37:24;4.50;;;2.70;;
83715;SDS011;73698;51.138;6.950;2023-11-18T17:39:50;5.03;;;3.10;;